sensor_id;sensor_type;location;lat;lon;timestamp;P1;durP1;ratioP1;P2;durP2;ratioP2
27863;SDS011;15980;51.092;13.916;2023-03-14T00:04:00;1.20;;;0.95;;
27863;SDS011;15980;51.092;13.916;2023-03-14T00:14:00;4.03;;;1.55;;
27863;SDS011;15980;51.092;13.916;2023-03-14T00:24:01;3.10;;;1.65;;
27863;SDS011;15980;51.092;13.916;2023-03-14T00:34:01;6.30;;;2.40;;
27863;SDS011;15980;51.092;13.916;2023-03-14T00:44:02;3.58;;;2.63;;
27863;SDS011;15980;51.092;13.916;2023-03-14T00:54:02;2.78;;;1.88;;
27863;SDS011;15980;51.092;13.916;2023-03-14T01:04:02;4.60;;;2.28;;
27863;SDS011;15980;51.092;13.916;2023-03-14T01:14:03;3.95;;;2.63;;
27863;SDS011;15980;51.092;13.916;2023-03-14T01:24:04;6.13;;;4.10;;
27863;SDS011;15980;51.092;13.916;2023-03-14T01:34:06;6.47;;;4.87;;
27863;SDS011;15980;51.092;13.916;2023-03-14T01:44:09;7.40;;;4.40;;
27863;SDS011;15980;51.092;13.916;2023-03-14T01:54:25;5.90;;;3.97;;
27863;SDS011;15980;51.092;13.916;2023-03-14T02:04:31;6.35;;;4.65;;
27863;SDS011;15980;51.092;13.916;2023-03-14T02:14:35;6.75;;;3.28;;
27863;SDS011;15980;51.092;13.916;2023-03-14T02:34:46;5.47;;;2.88;;
27863;SDS011;15980;51.092;13.916;2023-03-14T02:44:52;2.72;;;1.65;;
27863;SDS011;15980;51.092;13.916;2023-03-14T02:54:53;2.13;;;1.30;;
27863;SDS011;15980;51.092;13.916;2023-03-14T03:04:53;1.23;;;0.80;;
27863;SDS011;15980;51.092;13.916;2023-03-14T03:14:53;2.70;;;0.80;;
27863;SDS011;15980;51.092;13.916;2023-03-14T03:24:53;0.95;;;0.60;;
27863;SDS011;15980;51.092;13.916;2023-03-14T03:34:54;0.60;;;0.50;;
27863;SDS011;15980;51.092;13.916;2023-03-14T03:44:54;0.40;;;0.40;;
27863;SDS011;15980;51.092;13.916;2023-03-14T03:54:54;1.05;;;0.50;;
27863;SDS011;15980;51.092;13.916;2023-03-14T04:04:55;1.30;;;0.60;;
27863;SDS011;15980;51.092;13.916;2023-03-14T04:14:55;0.77;;;0.50;;
27863;SDS011;15980;51.092;13.916;2023-03-14T04:24:55;1.13;;;0.50;;
27863;SDS011;15980;51.092;13.916;2023-03-14T04:34:55;0.68;;;0.50;;
27863;SDS011;15980;51.092;13.916;2023-03-14T04:44:56;2.35;;;0.50;;
27863;SDS011;15980;51.092;13.916;2023-03-14T04:54:56;1.13;;;0.70;;
27863;SDS011;15980;51.092;13.916;2023-03-14T05:04:56;0.90;;;0.35;;
27863;SDS011;15980;51.092;13.916;2023-03-14T05:14:57;1.35;;;0.50;;
27863;SDS011;15980;51.092;13.916;2023-03-14T05:24:57;3.03;;;0.63;;
27863;SDS011;15980;51.092;13.916;2023-03-14T05:34:57;2.58;;;0.68;;
27863;SDS011;15980;51.092;13.916;2023-03-14T05:44:58;3.00;;;0.73;;
27863;SDS011;15980;51.092;13.916;2023-03-14T05:54:58;4.68;;;0.80;;
27863;SDS011;15980;51.092;13.916;2023-03-14T06:04:58;4.82;;;0.90;;
27863;SDS011;15980;51.092;13.916;2023-03-14T06:14:58;2.70;;;0.77;;
27863;SDS011;15980;51.092;13.916;2023-03-14T06:24:59;8.63;;;1.00;;
27863;SDS011;15980;51.092;13.916;2023-03-14T06:34:59;5.55;;;1.00;;
27863;SDS011;15980;51.092;13.916;2023-03-14T06:44:59;5.78;;;1.33;;
27863;SDS011;15980;51.092;13.916;2023-03-14T06:55:00;7.35;;;0.95;;
27863;SDS011;15980;51.092;13.916;2023-03-14T07:05:00;3.10;;;0.98;;
27863;SDS011;15980;51.092;13.916;2023-03-14T07:15:00;6.85;;;1.38;;
27863;SDS011;15980;51.092;13.916;2023-03-14T07:25:01;3.40;;;1.00;;
27863;SDS011;15980;51.092;13.916;2023-03-14T07:35:01;4.40;;;0.75;;
27863;SDS011;15980;51.092;13.916;2023-03-14T07:45:01;5.25;;;0.90;;
27863;SDS011;15980;51.092;13.916;2023-03-14T07:55:02;4.28;;;1.00;;
27863;SDS011;15980;51.092;13.916;2023-03-14T08:05:03;7.28;;;1.00;;
27863;SDS011;15980;51.092;13.916;2023-03-14T08:15:04;8.13;;;0.93;;
27863;SDS011;15980;51.092;13.916;2023-03-14T08:25:04;3.75;;;0.90;;
27863;SDS011;15980;51.092;13.916;2023-03-14T08:35:05;1.73;;;0.70;;
27863;SDS011;15980;51.092;13.916;2023-03-14T08:45:07;2.20;;;0.60;;
27863;SDS011;15980;51.092;13.916;2023-03-14T08:55:09;2.85;;;0.60;;
27863;SDS011;15980;51.092;13.916;2023-03-14T09:05:10;2.75;;;0.57;;
27863;SDS011;15980;51.092;13.916;2023-03-14T09:15:10;2.45;;;0.65;;
27863;SDS011;15980;51.092;13.916;2023-03-14T09:25:10;2.28;;;0.77;;
27863;SDS011;15980;51.092;13.916;2023-03-14T09:35:11;4.60;;;0.68;;
27863;SDS011;15980;51.092;13.916;2023-03-14T09:45:24;2.40;;;0.80;;
27863;SDS011;15980;51.092;13.916;2023-03-14T09:55:31;1.45;;;0.60;;
27863;SDS011;15980;51.092;13.916;2023-03-14T10:05:32;3.28;;;0.60;;
27863;SDS011;15980;51.092;13.916;2023-03-14T10:15:33;2.25;;;1.15;;
27863;SDS011;15980;51.092;13.916;2023-03-14T10:25:35;3.40;;;0.60;;
27863;SDS011;15980;51.092;13.916;2023-03-14T10:35:36;4.43;;;0.73;;
27863;SDS011;15980;51.092;13.916;2023-03-14T10:45:38;1.73;;;0.60;;
27863;SDS011;15980;51.092;13.916;2023-03-14T10:55:41;3.08;;;0.80;;
27863;SDS011;15980;51.092;13.916;2023-03-14T11:05:53;0.60;;;0.32;;
27863;SDS011;15980;51.092;13.916;2023-03-14T11:47:48;1.50;;;0.38;;
27863;SDS011;15980;51.092;13.916;2023-03-14T11:58:00;2.25;;;0.50;;
27863;SDS011;15980;51.092;13.916;2023-03-14T12:18:42;1.40;;;0.40;;
27863;SDS011;15980;51.092;13.916;2023-03-14T12:28:38;5.07;;;0.40;;
27863;SDS011;15980;51.092;13.916;2023-03-14T12:38:46;2.60;;;0.43;;
27863;SDS011;15980;51.092;13.916;2023-03-14T13:19:30;1.65;;;0.30;;
27863;SDS011;15980;51.092;13.916;2023-03-14T13:29:33;0.38;;;0.20;;
27863;SDS011;15980;51.092;13.916;2023-03-14T13:39:35;0.33;;;0.23;;
27863;SDS011;15980;51.092;13.916;2023-03-14T13:49:39;1.70;;;0.43;;
27863;SDS011;15980;51.092;13.916;2023-03-14T13:59:40;0.28;;;0.28;;
27863;SDS011;15980;51.092;13.916;2023-03-14T14:09:41;1.48;;;0.30;;
27863;SDS011;15980;51.092;13.916;2023-03-14T14:19:44;1.25;;;0.57;;
27863;SDS011;15980;51.092;13.916;2023-03-14T14:29:56;2.27;;;0.30;;
27863;SDS011;15980;51.092;13.916;2023-03-14T14:39:59;0.75;;;0.40;;
27863;SDS011;15980;51.092;13.916;2023-03-14T14:50:19;0.30;;;0.30;;
27863;SDS011;15980;51.092;13.916;2023-03-14T15:00:30;0.88;;;0.50;;
27863;SDS011;15980;51.092;13.916;2023-03-14T15:10:31;0.77;;;0.40;;
27863;SDS011;15980;51.092;13.916;2023-03-14T15:20:31;0.55;;;0.20;;
27863;SDS011;15980;51.092;13.916;2023-03-14T15:30:31;0.57;;;0.32;;
27863;SDS011;15980;51.092;13.916;2023-03-14T15:40:31;0.93;;;0.43;;
27863;SDS011;15980;51.092;13.916;2023-03-14T15:50:33;1.20;;;0.50;;
27863;SDS011;15980;51.092;13.916;2023-03-14T16:00:33;0.40;;;0.30;;
27863;SDS011;15980;51.092;13.916;2023-03-14T16:10:33;0.88;;;0.45;;
27863;SDS011;15980;51.092;13.916;2023-03-14T16:20:34;0.93;;;0.50;;
27863;SDS011;15980;51.092;13.916;2023-03-14T16:30:34;0.95;;;0.43;;
27863;SDS011;15980;51.092;13.916;2023-03-14T16:40:34;1.08;;;0.30;;
27863;SDS011;15980;51.092;13.916;2023-03-14T16:50:35;2.17;;;0.30;;
27863;SDS011;15980;51.092;13.916;2023-03-14T17:00:35;1.85;;;0.32;;
27863;SDS011;15980;51.092;13.916;2023-03-14T17:10:36;0.50;;;0.30;;
27863;SDS011;15980;51.092;13.916;2023-03-14T17:20:36;1.48;;;0.30;;
27863;SDS011;15980;51.092;13.916;2023-03-14T17:30:37;0.28;;;0.28;;
27863;SDS011;15980;51.092;13.916;2023-03-14T17:40:37;0.40;;;0.30;;
27863;SDS011;15980;51.092;13.916;2023-03-14T17:50:38;2.13;;;0.70;;
27863;SDS011;15980;51.092;13.916;2023-03-14T18:00:38;3.65;;;1.42;;
27863;SDS011;15980;51.092;13.916;2023-03-14T18:10:39;5.65;;;1.08;;
27863;SDS011;15980;51.092;13.916;2023-03-14T18:20:39;6.60;;;1.25;;
27863;SDS011;15980;51.092;13.916;2023-03-14T18:30:40;5.75;;;1.40;;
27863;SDS011;15980;51.092;13.916;2023-03-14T18:40:40;7.45;;;1.63;;
27863;SDS011;15980;51.092;13.916;2023-03-14T18:50:40;2.05;;;1.00;;
27863;SDS011;15980;51.092;13.916;2023-03-14T19:00:41;2.15;;;1.10;;
27863;SDS011;15980;51.092;13.916;2023-03-14T19:10:41;4.40;;;1.02;;
27863;SDS011;15980;51.092;13.916;2023-03-14T19:20:41;5.93;;;1.50;;
27863;SDS011;15980;51.092;13.916;2023-03-14T19:30:42;5.43;;;1.80;;
27863;SDS011;15980;51.092;13.916;2023-03-14T19:40:42;12.00;;;1.75;;
27863;SDS011;15980;51.092;13.916;2023-03-14T19:50:43;10.68;;;2.13;;
27863;SDS011;15980;51.092;13.916;2023-03-14T20:00:43;10.10;;;1.73;;
27863;SDS011;15980;51.092;13.916;2023-03-14T20:10:44;4.68;;;1.77;;
27863;SDS011;15980;51.092;13.916;2023-03-14T20:20:45;11.68;;;2.00;;
27863;SDS011;15980;51.092;13.916;2023-03-14T20:30:45;13.85;;;1.77;;
27863;SDS011;15980;51.092;13.916;2023-03-14T20:40:45;11.70;;;2.08;;
27863;SDS011;15980;51.092;13.916;2023-03-14T20:50:46;14.52;;;1.92;;
27863;SDS011;15980;51.092;13.916;2023-03-14T21:00:47;10.43;;;1.80;;
27863;SDS011;15980;51.092;13.916;2023-03-14T21:10:49;15.20;;;1.98;;
27863;SDS011;15980;51.092;13.916;2023-03-14T21:20:52;13.73;;;2.07;;
27863;SDS011;15980;51.092;13.916;2023-03-14T21:30:53;12.63;;;1.90;;
27863;SDS011;15980;51.092;13.916;2023-03-14T21:40:56;13.65;;;1.88;;
27863;SDS011;15980;51.092;13.916;2023-03-14T21:50:57;8.55;;;1.60;;
27863;SDS011;15980;51.092;13.916;2023-03-14T22:01:01;13.70;;;1.60;;
27863;SDS011;15980;51.092;13.916;2023-03-14T22:11:05;19.75;;;2.17;;
27863;SDS011;15980;51.092;13.916;2023-03-14T22:21:06;9.20;;;1.58;;
27863;SDS011;15980;51.092;13.916;2023-03-14T22:31:06;24.80;;;2.50;;
27863;SDS011;15980;51.092;13.916;2023-03-14T22:41:08;12.15;;;2.17;;
27863;SDS011;15980;51.092;13.916;2023-03-14T22:51:09;14.15;;;2.92;;
27863;SDS011;15980;51.092;13.916;2023-03-14T23:01:10;15.20;;;2.30;;
27863;SDS011;15980;51.092;13.916;2023-03-14T23:11:12;11.97;;;2.30;;
27863;SDS011;15980;51.092;13.916;2023-03-14T23:21:14;9.20;;;1.75;;
27863;SDS011;15980;51.092;13.916;2023-03-14T23:31:19;11.35;;;2.08;;
27863;SDS011;15980;51.092;13.916;2023-03-14T23:41:20;8.55;;;1.63;;
27863;SDS011;15980;51.092;13.916;2023-03-14T23:51:21;12.90;;;1.90;;
